SBBVTKPK

Guest
Details From SBBV - Boa Vista Intl
To TKPK - St. Kitts/Bradshaw Intl
Flight Number -
Tags decoded
Created
Modified
Stats Distance 973 nm / 1,802 km
Max Altitude 0 ft / 0 m
Waypoints 9
Social Downloads 1
Likes 0
Share VATSIM

Download

Looking for another format? Having issues loading an existing format? Contact us
Advertisement - Login to hide

Notes

Requested: SBBV PICOM UB681 TIM UA312 PPR UR888 MODU TKPK Unmatched points: UB681 UR888 MODU

Route

SBBV PICOM TIM UA312 PPR TKPK

ID Type Via Altitude Latitude Longitude Leg Dist Tot Dist Heading (true) Name
O SBBV APT - 0 ft / 0 m 2.84631˚ -60.69007˚ - 0 nm - Boa Vista Intl
PICOM FIX - 0 ft / 0 m 3.40933˚ -60.31717˚ 40 nm 40 nm 33° / 33° -
TIM VOR - 0 ft / 0 m 6.49228˚ -58.25772˚ 222 nm 262 nm 34° / 34° TIMEHRI VOR
LOKIT FIX UA312 (AWY-HI) 0 ft / 0 m 7.68364˚ -58.65575˚ 75 nm 338 nm 342° / 342° -
LEPOD FIX UA312 (AWY-HI) 0 ft / 0 m 8.50439˚ -58.93131˚ 51 nm 390 nm 342° / 342° -
DALGA FIX UA312 (AWY-HI) 0 ft / 0 m 8.91911˚ -59.07103˚ 26 nm 416 nm 342° / 342° -
FOF VOR UA312 (AWY-HI) 0 ft / 0 m 14.59083˚ -61.02278˚ 359 nm 775 nm 342° / 341° MARTINIQUE VOR-DME
PPR VOR UA312 (AWY-HI) 0 ft / 0 m 16.26528˚ -61.54000˚ 104 nm 880 nm 343° / 343° POINTE A PITRE VOR-DME
O TKPK APT - 0 ft / 0 m 17.31119˚ -62.71867˚ 92 nm 973 nm 313° / 313° St. Kitts/Bradshaw Intl

Altitude Profile

Advertisement - Login to hide

Weather


0- 5 10 15 20 25 30 35+ Temperature / ° C

Clouds and Precipitation
Forecast for 2017-12-13 06:00 UTC. Updated 17 minutes ago

Ground ~20,000 ft ~40,000 ft Winds

SBBV

Details ICAO SBBV (BVB)
Name Boa Vista Intl
Region Brazil
Timezone America/Boa_Vista (UTC-4.0)
Stats Elevation 275 ft / 84 m (AMSL)
Location 2.846311° -60.690068°
Runways 1
Magnetic Variation 15.417° W

METAR

SBBV 130500Z 12005KT CAVOK 28/22 Q1010

Decode

TAF

TAF SBBV 122200Z 1300/1324 09008KT CAVOK TN26/1310Z TX35/1317Z BECNG 1310/1312 06015KT BECMG 1315/1317 10010KT SCT040 FEW045TCU BECMG 1321/1323 07008KT FEW040 RMK PEH

Decode

Departure Runways

ID Width Length Bearing (true) Bearing (mag) Surface Threshold Offset Overrun Length
08 148 ft / 45 m 8,871 ft / 2,704 m 62.88° 78.30° Asphalt 300 ft / 91 m 0 ft / 0 m
26 148 ft / 45 m 8,871 ft / 2,704 m 242.88° 258.30° Asphalt 300 ft / 91 m 0 ft / 0 m

TKPK

Details ICAO TKPK (SKB)
Name St. Kitts/Bradshaw Intl
Region Saint Kitts and Nevis
Timezone America/St_Kitts (UTC-4.0)
Stats Elevation 170 ft / 52 m (AMSL)
Location 17.311194° -62.718666°
Runways 1
Magnetic Variation 14.451° W

METAR

Not found

TAF

TAF TKPK 122320Z 1300/1324 12006KT P6SM FEW024 FM130200 VRB02KT P6SM VCSH SCT018 FM131600 10008KT P6SM FEW250 FM132200 18004KT P6SM BKN030 AMD NOT SKED 1302/1311

Decode

Destination Runways

ID Width Length Bearing (true) Bearing (mag) Surface Threshold Offset Overrun Length
07 148 ft / 45 m 7,620 ft / 2,323 m 56.95° 71.40° Asphalt 200 ft / 61 m 0 ft / 0 m
25 148 ft / 45 m 7,620 ft / 2,323 m 236.95° 251.40° Asphalt 0 ft / 0 m 0 ft / 0 m

Popular Alternatives